sensor_id;sensor_type;location;lat;lon;timestamp;pressure;altitude;pressure_sealevel;temperature
72054;BMP280;59918;51.280;7.950;2023-08-12T00:00:48;98286.63;;;21.74
72054;BMP280;59918;51.280;7.950;2023-08-12T00:03:13;98281.91;;;21.71
72054;BMP280;59918;51.280;7.950;2023-08-12T00:05:39;98285.06;;;21.73
72054;BMP280;59918;51.280;7.950;2023-08-12T00:08:04;98280.34;;;21.75
72054;BMP280;59918;51.280;7.950;2023-08-12T00:10:29;98281.94;;;21.76
72054;BMP280;59918;51.280;7.950;2023-08-12T00:12:55;98282.72;;;21.81
72054;BMP280;59918;51.280;7.950;2023-08-12T00:15:20;98284.28;;;21.82
72054;BMP280;59918;51.280;7.950;2023-08-12T00:17:45;98282.44;;;21.83
72054;BMP280;59918;51.280;7.950;2023-08-12T00:20:11;98276.69;;;21.86
72054;BMP280;59918;51.280;7.950;2023-08-12T00:22:37;98275.91;;;21.85
72054;BMP280;59918;51.280;7.950;2023-08-12T00:25:02;98275.13;;;21.90
72054;BMP280;59918;51.280;7.950;2023-08-12T00:27:28;98273.28;;;21.90
72054;BMP280;59918;51.280;7.950;2023-08-12T00:29:53;98282.72;;;21.91
72054;BMP280;59918;51.280;7.950;2023-08-12T00:32:18;98269.09;;;21.89
72054;BMP280;59918;51.280;7.950;2023-08-12T00:34:43;98262.53;;;21.92
72054;BMP280;59918;51.280;7.950;2023-08-12T00:37:09;98249.44;;;21.92
72054;BMP280;59918;51.280;7.950;2023-08-12T00:39:34;98246.84;;;21.92
72054;BMP280;59918;51.280;7.950;2023-08-12T00:41:59;98244.72;;;21.94
72054;BMP280;59918;51.280;7.950;2023-08-12T00:44:24;98243.66;;;21.95
72054;BMP280;59918;51.280;7.950;2023-08-12T00:46:50;98234.53;;;21.92
72054;BMP280;59918;51.280;7.950;2023-08-12T00:49:15;98230.88;;;21.93
72054;BMP280;59918;51.280;7.950;2023-08-12T00:51:42;98226.66;;;21.92
72054;BMP280;59918;51.280;7.950;2023-08-12T00:54:13;98222.50;;;21.91
72054;BMP280;59918;51.280;7.950;2023-08-12T00:56:39;98223.78;;;21.89
72054;BMP280;59918;51.280;7.950;2023-08-12T00:59:05;98224.31;;;21.86
72054;BMP280;59918;51.280;7.950;2023-08-12T01:01:32;98230.34;;;21.86
72054;BMP280;59918;51.280;7.950;2023-08-12T01:03:57;98234.78;;;21.86
72054;BMP280;59918;51.280;7.950;2023-08-12T01:06:23;98227.97;;;21.85
72054;BMP280;59918;51.280;7.950;2023-08-12T01:08:49;98234.28;;;21.84
72054;BMP280;59918;51.280;7.950;2023-08-12T01:14:08;98239.00;;;21.82
72054;BMP280;59918;51.280;7.950;2023-08-12T01:16:40;98235.84;;;21.80
72054;BMP280;59918;51.280;7.950;2023-08-12T01:19:10;98234.28;;;21.79
72054;BMP280;59918;51.280;7.950;2023-08-12T01:21:37;98231.13;;;21.77
72054;BMP280;59918;51.280;7.950;2023-08-12T01:24:06;98240.06;;;21.76
72054;BMP280;59918;51.280;7.950;2023-08-12T01:26:31;98234.28;;;21.74
72054;BMP280;59918;51.280;7.950;2023-08-12T01:28:56;98247.63;;;21.72
72054;BMP280;59918;51.280;7.950;2023-08-12T01:31:32;98236.66;;;21.70
72054;BMP280;59918;51.280;7.950;2023-08-12T01:34:04;98233.25;;;21.70
72054;BMP280;59918;51.280;7.950;2023-08-12T01:36:32;98242.13;;;21.69
72054;BMP280;59918;51.280;7.950;2023-08-12T01:39:00;98247.66;;;21.67
72054;BMP280;59918;51.280;7.950;2023-08-12T01:41:26;98251.84;;;21.63
72054;BMP280;59918;51.280;7.950;2023-08-12T01:43:52;98261.00;;;21.61
72054;BMP280;59918;51.280;7.950;2023-08-12T01:46:17;98253.66;;;21.53
72054;BMP280;59918;51.280;7.950;2023-08-12T01:48:42;98257.88;;;21.44
72054;BMP280;59918;51.280;7.950;2023-08-12T01:51:07;98251.28;;;21.37
72054;BMP280;59918;51.280;7.950;2023-08-12T01:53:33;98260.16;;;21.26
72054;BMP280;59918;51.280;7.950;2023-08-12T01:55:58;98246.31;;;21.21
72054;BMP280;59918;51.280;7.950;2023-08-12T01:58:23;98236.34;;;21.18
72054;BMP280;59918;51.280;7.950;2023-08-12T02:00:48;98237.41;;;21.17
72054;BMP280;59918;51.280;7.950;2023-08-12T02:03:14;98233.22;;;21.16
72054;BMP280;59918;51.280;7.950;2023-08-12T02:05:41;98234.00;;;21.11
72054;BMP280;59918;51.280;7.950;2023-08-12T02:08:06;98222.50;;;21.07
72054;BMP280;59918;51.280;7.950;2023-08-12T02:10:32;98226.41;;;21.05
72054;BMP280;59918;51.280;7.950;2023-08-12T02:13:02;98223.00;;;21.04
72054;BMP280;59918;51.280;7.950;2023-08-12T02:15:27;98233.19;;;21.06
72054;BMP280;59918;51.280;7.950;2023-08-12T02:17:52;98231.88;;;21.03
72054;BMP280;59918;51.280;7.950;2023-08-12T02:20:17;98228.50;;;21.03
72054;BMP280;59918;51.280;7.950;2023-08-12T02:22:43;98227.97;;;21.01
72054;BMP280;59918;51.280;7.950;2023-08-12T02:25:08;98228.22;;;20.99
72054;BMP280;59918;51.280;7.950;2023-08-12T02:27:33;98224.03;;;20.98
72054;BMP280;59918;51.280;7.950;2023-08-12T02:29:58;98218.28;;;20.96
72054;BMP280;59918;51.280;7.950;2023-08-12T02:32:23;98216.97;;;20.94
72054;BMP280;59918;51.280;7.950;2023-08-12T02:34:49;98218.28;;;20.91
72054;BMP280;59918;51.280;7.950;2023-08-12T02:37:14;98217.22;;;20.92
72054;BMP280;59918;51.280;7.950;2023-08-12T02:39:39;98222.19;;;20.89
72054;BMP280;59918;51.280;7.950;2023-08-12T02:42:05;98213.56;;;20.88
72054;BMP280;59918;51.280;7.950;2023-08-12T02:44:30;98222.69;;;20.86
72054;BMP280;59918;51.280;7.950;2023-08-12T02:46:55;98214.34;;;20.84
72054;BMP280;59918;51.280;7.950;2023-08-12T02:49:20;98217.97;;;20.83
72054;BMP280;59918;51.280;7.950;2023-08-12T02:51:46;98222.69;;;20.76
72054;BMP280;59918;51.280;7.950;2023-08-12T02:54:11;98216.38;;;20.67
72054;BMP280;59918;51.280;7.950;2023-08-12T02:56:36;98214.78;;;20.61
72054;BMP280;59918;51.280;7.950;2023-08-12T02:59:04;98214.22;;;20.59
72054;BMP280;59918;51.280;7.950;2023-08-12T03:01:29;98218.16;;;20.57
72054;BMP280;59918;51.280;7.950;2023-08-12T03:03:54;98214.22;;;20.54
72054;BMP280;59918;51.280;7.950;2023-08-12T03:06:20;98207.94;;;20.50
72054;BMP280;59918;51.280;7.950;2023-08-12T03:08:45;98195.66;;;20.51
72054;BMP280;59918;51.280;7.950;2023-08-12T03:11:10;98189.66;;;20.50
72054;BMP280;59918;51.280;7.950;2023-08-12T03:13:35;98196.72;;;20.55
72054;BMP280;59918;51.280;7.950;2023-08-12T03:16:01;98191.75;;;20.53
72054;BMP280;59918;51.280;7.950;2023-08-12T03:18:26;98186.28;;;20.50
72054;BMP280;59918;51.280;7.950;2023-08-12T03:20:51;98185.97;;;20.47
72054;BMP280;59918;51.280;7.950;2023-08-12T03:23:16;98189.91;;;20.44
72054;BMP280;59918;51.280;7.950;2023-08-12T03:25:42;98188.56;;;20.42
72054;BMP280;59918;51.280;7.950;2023-08-12T03:28:07;98184.41;;;20.41
72054;BMP280;59918;51.280;7.950;2023-08-12T03:30:32;98193.28;;;20.45
72054;BMP280;59918;51.280;7.950;2023-08-12T03:32:58;98188.06;;;20.45
72054;BMP280;59918;51.280;7.950;2023-08-12T03:35:23;98183.88;;;20.44
72054;BMP280;59918;51.280;7.950;2023-08-12T03:37:48;98190.16;;;20.43
72054;BMP280;59918;51.280;7.950;2023-08-12T03:40:13;98188.03;;;20.40
72054;BMP280;59918;51.280;7.950;2023-08-12T03:42:39;98178.38;;;20.35
72054;BMP280;59918;51.280;7.950;2023-08-12T03:45:04;98166.09;;;20.36
72054;BMP280;59918;51.280;7.950;2023-08-12T03:47:30;98165.06;;;20.37
72054;BMP280;59918;51.280;7.950;2023-08-12T03:49:55;98172.66;;;20.38
72054;BMP280;59918;51.280;7.950;2023-08-12T03:52:20;98157.75;;;20.39
72054;BMP280;59918;51.280;7.950;2023-08-12T03:54:46;98157.22;;;20.37
72054;BMP280;59918;51.280;7.950;2023-08-12T03:57:11;98141.53;;;20.32
72054;BMP280;59918;51.280;7.950;2023-08-12T03:59:36;98153.03;;;20.36
72054;BMP280;59918;51.280;7.950;2023-08-12T04:02:02;98156.41;;;20.31
72054;BMP280;59918;51.280;7.950;2023-08-12T04:04:27;98155.06;;;20.24
72054;BMP280;59918;51.280;7.950;2023-08-12T04:06:53;98148.78;;;20.20
72054;BMP280;59918;51.280;7.950;2023-08-12T04:09:18;98136.00;;;20.18
72054;BMP280;59918;51.280;7.950;2023-08-12T04:11:44;98145.69;;;20.23
72054;BMP280;59918;51.280;7.950;2023-08-12T04:14:09;98134.72;;;20.26
72054;BMP280;59918;51.280;7.950;2023-08-12T04:16:34;98138.91;;;20.27
72054;BMP280;59918;51.280;7.950;2023-08-12T04:19:00;98139.41;;;20.24
72054;BMP280;59918;51.280;7.950;2023-08-12T04:21:25;98134.44;;;20.17
72054;BMP280;59918;51.280;7.950;2023-08-12T04:23:50;98134.94;;;20.14
72054;BMP280;59918;51.280;7.950;2023-08-12T04:26:15;98135.75;;;20.15
72054;BMP280;59918;51.280;7.950;2023-08-12T04:28:42;98137.03;;;20.17
72054;BMP280;59918;51.280;7.950;2023-08-12T04:31:07;98125.81;;;20.17
72054;BMP280;59918;51.280;7.950;2023-08-12T04:33:33;98125.28;;;20.20
72054;BMP280;59918;51.280;7.950;2023-08-12T04:35:58;98125.06;;;20.21
72054;BMP280;59918;51.280;7.950;2023-08-12T04:38:23;98120.34;;;20.23
72054;BMP280;59918;51.280;7.950;2023-08-12T04:40:48;98121.41;;;20.22
72054;BMP280;59918;51.280;7.950;2023-08-12T04:43:14;98114.84;;;20.15
72054;BMP280;59918;51.280;7.950;2023-08-12T04:45:39;98116.94;;;20.13
72054;BMP280;59918;51.280;7.950;2023-08-12T04:48:05;98107.78;;;20.11
72054;BMP280;59918;51.280;7.950;2023-08-12T04:50:31;98090.56;;;20.10
72054;BMP280;59918;51.280;7.950;2023-08-12T04:52:57;98085.06;;;20.11
72054;BMP280;59918;51.280;7.950;2023-08-12T04:55:25;98086.88;;;20.11
72054;BMP280;59918;51.280;7.950;2023-08-12T04:57:50;98082.47;;;20.11
72054;BMP280;59918;51.280;7.950;2023-08-12T05:00:15;98084.28;;;20.11
72054;BMP280;59918;51.280;7.950;2023-08-12T05:02:41;98075.66;;;20.10
72054;BMP280;59918;51.280;7.950;2023-08-12T05:05:06;98071.75;;;20.12
72054;BMP280;59918;51.280;7.950;2023-08-12T05:07:31;98074.63;;;20.16
72054;BMP280;59918;51.280;7.950;2023-08-12T05:09:57;98074.63;;;20.16
72054;BMP280;59918;51.280;7.950;2023-08-12T05:12:22;98074.63;;;20.16
72054;BMP280;59918;51.280;7.950;2023-08-12T05:14:47;98071.78;;;20.17
72054;BMP280;59918;51.280;7.950;2023-08-12T05:17:12;98076.22;;;20.22
72054;BMP280;59918;51.280;7.950;2023-08-12T05:19:38;98076.25;;;20.27
72054;BMP280;59918;51.280;7.950;2023-08-12T05:22:03;98062.41;;;20.31
72054;BMP280;59918;51.280;7.950;2023-08-12T05:24:28;98068.44;;;20.37
72054;BMP280;59918;51.280;7.950;2023-08-12T05:26:53;98071.84;;;20.42
72054;BMP280;59918;51.280;7.950;2023-08-12T05:29:19;98067.91;;;20.45
72054;BMP280;59918;51.280;7.950;2023-08-12T05:31:44;98066.34;;;20.48
72054;BMP280;59918;51.280;7.950;2023-08-12T05:34:09;98063.50;;;20.50
72054;BMP280;59918;51.280;7.950;2023-08-12T05:36:37;98053.06;;;20.60
72054;BMP280;59918;51.280;7.950;2023-08-12T05:39:02;98048.09;;;20.78
72054;BMP280;59918;51.280;7.950;2023-08-12T05:41:28;98040.78;;;20.95
72054;BMP280;59918;51.280;7.950;2023-08-12T05:43:53;98053.84;;;21.00
72054;BMP280;59918;51.280;7.950;2023-08-12T05:46:18;98059.84;;;20.90
72054;BMP280;59918;51.280;7.950;2023-08-12T05:48:43;98059.34;;;20.84
72054;BMP280;59918;51.280;7.950;2023-08-12T05:51:09;98060.91;;;20.75
72054;BMP280;59918;51.280;7.950;2023-08-12T05:53:34;98063.00;;;20.63
72054;BMP280;59918;51.280;7.950;2023-08-12T05:55:59;98065.06;;;20.56
72054;BMP280;59918;51.280;7.950;2023-08-12T05:58:25;98061.91;;;20.49
72054;BMP280;59918;51.280;7.950;2023-08-12T06:00:51;98071.06;;;20.47
72054;BMP280;59918;51.280;7.950;2023-08-12T06:03:16;98062.16;;;20.43
72054;BMP280;59918;51.280;7.950;2023-08-12T06:05:44;98074.44;;;20.42
72054;BMP280;59918;51.280;7.950;2023-08-12T06:08:12;98068.16;;;20.43
72054;BMP280;59918;51.280;7.950;2023-08-12T06:10:37;98070.00;;;20.52
72054;BMP280;59918;51.280;7.950;2023-08-12T06:13:03;98076.84;;;20.78
72054;BMP280;59918;51.280;7.950;2023-08-12T06:15:28;98077.88;;;21.12
72054;BMP280;59918;51.280;7.950;2023-08-12T06:17:56;98089.09;;;21.47
72054;BMP280;59918;51.280;7.950;2023-08-12T06:20:23;98085.63;;;21.71
72054;BMP280;59918;51.280;7.950;2023-08-12T06:22:50;98078.75;;;21.85
72054;BMP280;59918;51.280;7.950;2023-08-12T06:25:15;98070.03;;;22.14
72054;BMP280;59918;51.280;7.950;2023-08-12T06:27:40;98076.69;;;22.39
72054;BMP280;59918;51.280;7.950;2023-08-12T06:30:06;98076.16;;;22.37
72054;BMP280;59918;51.280;7.950;2023-08-12T06:32:33;98070.16;;;22.37
72054;BMP280;59918;51.280;7.950;2023-08-12T06:34:59;98066.75;;;22.36
72054;BMP280;59918;51.280;7.950;2023-08-12T06:37:24;98079.28;;;22.44
72054;BMP280;59918;51.280;7.950;2023-08-12T06:39:49;98075.81;;;22.54
72054;BMP280;59918;51.280;7.950;2023-08-12T06:42:14;98085.81;;;22.47
72054;BMP280;59918;51.280;7.950;2023-08-12T06:44:40;98072.78;;;22.37
72054;BMP280;59918;51.280;7.950;2023-08-12T06:47:05;98084.53;;;22.39
72054;BMP280;59918;51.280;7.950;2023-08-12T06:49:30;98080.94;;;22.31
72054;BMP280;59918;51.280;7.950;2023-08-12T06:51:55;98078.63;;;22.24
72054;BMP280;59918;51.280;7.950;2023-08-12T06:54:23;98083.63;;;22.21
72054;BMP280;59918;51.280;7.950;2023-08-12T06:56:49;98083.63;;;22.11
72054;BMP280;59918;51.280;7.950;2023-08-12T06:59:14;98090.72;;;22.00
72054;BMP280;59918;51.280;7.950;2023-08-12T07:01:39;98093.41;;;21.91
72054;BMP280;59918;51.280;7.950;2023-08-12T07:04:05;98100.25;;;21.82
72054;BMP280;59918;51.280;7.950;2023-08-12T07:06:30;98094.03;;;21.68
72054;BMP280;59918;51.280;7.950;2023-08-12T07:08:55;98094.31;;;21.57
72054;BMP280;59918;51.280;7.950;2023-08-12T07:11:21;98096.44;;;21.45
72054;BMP280;59918;51.280;7.950;2023-08-12T07:13:46;98092.75;;;21.31
72054;BMP280;59918;51.280;7.950;2023-08-12T07:16:11;98094.88;;;21.14
72054;BMP280;59918;51.280;7.950;2023-08-12T07:18:36;98082.34;;;20.91
72054;BMP280;59918;51.280;7.950;2023-08-12T07:21:02;98078.94;;;20.66
72054;BMP280;59918;51.280;7.950;2023-08-12T07:23:27;98064.25;;;20.46
72054;BMP280;59918;51.280;7.950;2023-08-12T07:25:52;98060.56;;;20.32
72054;BMP280;59918;51.280;7.950;2023-08-12T07:28:17;98045.16;;;20.20
72054;BMP280;59918;51.280;7.950;2023-08-12T07:30:43;98038.34;;;20.10
72054;BMP280;59918;51.280;7.950;2023-08-12T07:33:08;98029.44;;;20.01
72054;BMP280;59918;51.280;7.950;2023-08-12T07:35:33;98030.72;;;19.93
72054;BMP280;59918;51.280;7.950;2023-08-12T07:37:59;98031.47;;;19.89
72054;BMP280;59918;51.280;7.950;2023-08-12T07:40:24;98038.00;;;19.86
72054;BMP280;59918;51.280;7.950;2023-08-12T07:42:49;98035.66;;;19.85
72054;BMP280;59918;51.280;7.950;2023-08-12T07:45:15;98035.41;;;19.81
72054;BMP280;59918;51.280;7.950;2023-08-12T07:47:40;98040.31;;;19.78
72054;BMP280;59918;51.280;7.950;2023-08-12T07:50:05;98035.09;;;19.78
72054;BMP280;59918;51.280;7.950;2023-08-12T07:52:31;98000.41;;;19.82
72054;BMP280;59918;51.280;7.950;2023-08-12T07:54:56;97987.66;;;19.91
72054;BMP280;59918;51.280;7.950;2023-08-12T07:57:21;97975.66;;;20.05
72054;BMP280;59918;51.280;7.950;2023-08-12T07:59:47;97975.44;;;20.16
72054;BMP280;59918;51.280;7.950;2023-08-12T08:02:12;97981.72;;;20.25
72054;BMP280;59918;51.280;7.950;2023-08-12T08:04:37;97979.91;;;20.30
72054;BMP280;59918;51.280;7.950;2023-08-12T08:07:02;97983.03;;;20.42
72054;BMP280;59918;51.280;7.950;2023-08-12T08:09:28;97982.78;;;20.68
72054;BMP280;59918;51.280;7.950;2023-08-12T08:11:53;97991.13;;;20.95
72054;BMP280;59918;51.280;7.950;2023-08-12T08:14:18;98005.44;;;21.17
72054;BMP280;59918;51.280;7.950;2023-08-12T08:16:43;98011.66;;;21.36
72054;BMP280;59918;51.280;7.950;2023-08-12T08:19:09;98014.53;;;21.49
72054;BMP280;59918;51.280;7.950;2023-08-12T08:21:34;98031.47;;;21.66
72054;BMP280;59918;51.280;7.950;2023-08-12T08:23:59;98022.81;;;21.76
72054;BMP280;59918;51.280;7.950;2023-08-12T08:26:24;98037.91;;;21.89
72054;BMP280;59918;51.280;7.950;2023-08-12T08:28:50;98024.59;;;22.33
72054;BMP280;59918;51.280;7.950;2023-08-12T08:31:15;98026.81;;;22.87
72054;BMP280;59918;51.280;7.950;2023-08-12T08:33:42;98032.06;;;23.39
72054;BMP280;59918;51.280;7.950;2023-08-12T08:36:08;98024.50;;;23.60
72054;BMP280;59918;51.280;7.950;2023-08-12T08:38:33;98014.88;;;23.74
72054;BMP280;59918;51.280;7.950;2023-08-12T08:40:59;98015.34;;;23.81
72054;BMP280;59918;51.280;7.950;2023-08-12T08:43:26;98015.78;;;24.24
72054;BMP280;59918;51.280;7.950;2023-08-12T08:45:52;98007.34;;;24.27
72054;BMP280;59918;51.280;7.950;2023-08-12T08:48:19;97997.59;;;24.46
72054;BMP280;59918;51.280;7.950;2023-08-12T08:50:45;97999.25;;;24.74
72054;BMP280;59918;51.280;7.950;2023-08-12T08:53:11;97995.91;;;24.68
72054;BMP280;59918;51.280;7.950;2023-08-12T08:55:37;97990.59;;;24.73
72054;BMP280;59918;51.280;7.950;2023-08-12T08:58:02;97968.06;;;24.99
72054;BMP280;59918;51.280;7.950;2023-08-12T09:00:28;97978.00;;;25.15
72054;BMP280;59918;51.280;7.950;2023-08-12T09:02:54;97988.03;;;25.13
72054;BMP280;59918;51.280;7.950;2023-08-12T09:05:20;97990.78;;;25.35
72054;BMP280;59918;51.280;7.950;2023-08-12T09:07:46;97995.38;;;25.83
72054;BMP280;59918;51.280;7.950;2023-08-12T09:10:12;98001.63;;;25.60
72054;BMP280;59918;51.280;7.950;2023-08-12T09:12:38;98003.09;;;25.39
72054;BMP280;59918;51.280;7.950;2023-08-12T09:15:04;98008.16;;;25.36
72054;BMP280;59918;51.280;7.950;2023-08-12T09:17:31;97992.75;;;25.69
72054;BMP280;59918;51.280;7.950;2023-08-12T09:19:56;97995.88;;;25.71
72054;BMP280;59918;51.280;7.950;2023-08-12T09:22:24;97988.31;;;25.78
72054;BMP280;59918;51.280;7.950;2023-08-12T09:24:56;98000.63;;;25.96
72054;BMP280;59918;51.280;7.950;2023-08-12T09:27:23;98001.72;;;25.68
72054;BMP280;59918;51.280;7.950;2023-08-12T09:29:49;97995.84;;;25.45
72054;BMP280;59918;51.280;7.950;2023-08-12T09:32:20;98001.50;;;25.38
72054;BMP280;59918;51.280;7.950;2023-08-12T09:34:51;98000.13;;;25.41
72054;BMP280;59918;51.280;7.950;2023-08-12T09:37:16;97998.19;;;25.33
72054;BMP280;59918;51.280;7.950;2023-08-12T09:39:42;98000.03;;;25.19
72054;BMP280;59918;51.280;7.950;2023-08-12T09:42:07;98005.41;;;25.14
72054;BMP280;59918;51.280;7.950;2023-08-12T09:44:42;98007.84;;;24.79
72054;BMP280;59918;51.280;7.950;2023-08-12T09:47:07;98017.34;;;24.44
72054;BMP280;59918;51.280;7.950;2023-08-12T09:49:33;98020.47;;;24.09
72054;BMP280;59918;51.280;7.950;2023-08-12T09:51:59;98028.72;;;23.80
72054;BMP280;59918;51.280;7.950;2023-08-12T09:54:27;98018.25;;;23.56
72054;BMP280;59918;51.280;7.950;2023-08-12T09:56:55;98026.94;;;23.52
72054;BMP280;59918;51.280;7.950;2023-08-12T09:59:22;98037.72;;;23.50
72054;BMP280;59918;51.280;7.950;2023-08-12T10:01:49;98035.31;;;23.31
72054;BMP280;59918;51.280;7.950;2023-08-12T10:04:17;98038.03;;;23.21
72054;BMP280;59918;51.280;7.950;2023-08-12T10:06:43;98042.53;;;23.15
72054;BMP280;59918;51.280;7.950;2023-08-12T10:09:09;98051.75;;;23.13
72054;BMP280;59918;51.280;7.950;2023-08-12T10:11:35;98051.25;;;23.11
72054;BMP280;59918;51.280;7.950;2023-08-12T10:14:03;98043.56;;;23.19
72054;BMP280;59918;51.280;7.950;2023-08-12T10:16:29;98052.69;;;23.22
72054;BMP280;59918;51.280;7.950;2023-08-12T10:18:56;98041.56;;;23.35
72054;BMP280;59918;51.280;7.950;2023-08-12T10:21:22;98035.63;;;23.94
72054;BMP280;59918;51.280;7.950;2023-08-12T10:23:49;98021.31;;;25.63
72054;BMP280;59918;51.280;7.950;2023-08-12T10:26:16;98018.84;;;27.06
72054;BMP280;59918;51.280;7.950;2023-08-12T10:28:42;98012.66;;;27.11
72054;BMP280;59918;51.280;7.950;2023-08-12T10:31:07;98024.41;;;27.65
72054;BMP280;59918;51.280;7.950;2023-08-12T10:33:51;98029.00;;;27.51
72054;BMP280;59918;51.280;7.950;2023-08-12T10:36:21;98019.34;;;26.65
72054;BMP280;59918;51.280;7.950;2023-08-12T10:38:46;98038.84;;;25.94
72054;BMP280;59918;51.280;7.950;2023-08-12T10:41:22;98028.88;;;25.11
72054;BMP280;59918;51.280;7.950;2023-08-12T10:46:42;98023.81;;;24.83
72054;BMP280;59918;51.280;7.950;2023-08-12T10:49:14;98020.69;;;25.12
72054;BMP280;59918;51.280;7.950;2023-08-12T10:54:26;98031.78;;;26.16
72054;BMP280;59918;51.280;7.950;2023-08-12T10:57:10;98021.75;;;27.65
72054;BMP280;59918;51.280;7.950;2023-08-12T11:02:31;98010.94;;;27.45
72054;BMP280;59918;51.280;7.950;2023-08-12T11:05:07;98024.91;;;26.42
72054;BMP280;59918;51.280;7.950;2023-08-12T11:10:00;98010.78;;;25.63
72054;BMP280;59918;51.280;7.950;2023-08-12T11:12:33;98010.09;;;25.70
72054;BMP280;59918;51.280;7.950;2023-08-12T11:14:59;98011.75;;;25.53
72054;BMP280;59918;51.280;7.950;2023-08-12T11:17:45;97997.59;;;25.89
72054;BMP280;59918;51.280;7.950;2023-08-12T11:20:12;97990.63;;;26.42
72054;BMP280;59918;51.280;7.950;2023-08-12T11:22:39;97983.69;;;26.24
72054;BMP280;59918;51.280;7.950;2023-08-12T11:25:06;97989.16;;;25.66
72054;BMP280;59918;51.280;7.950;2023-08-12T11:27:37;97996.03;;;25.22
72054;BMP280;59918;51.280;7.950;2023-08-12T11:30:02;97986.34;;;24.91
72054;BMP280;59918;51.280;7.950;2023-08-12T11:32:28;97989.16;;;24.81
72054;BMP280;59918;51.280;7.950;2023-08-12T11:34:53;97982.97;;;24.72
72054;BMP280;59918;51.280;7.950;2023-08-12T11:37:18;97981.66;;;24.88
72054;BMP280;59918;51.280;7.950;2023-08-12T11:39:44;97980.78;;;24.92
72054;BMP280;59918;51.280;7.950;2023-08-12T11:42:09;97982.75;;;25.00
72054;BMP280;59918;51.280;7.950;2023-08-12T11:44:34;97973.72;;;25.19
72054;BMP280;59918;51.280;7.950;2023-08-12T11:46:59;97981.03;;;25.22
72054;BMP280;59918;51.280;7.950;2023-08-12T11:49:25;97972.38;;;25.08
72054;BMP280;59918;51.280;7.950;2023-08-12T11:51:50;97974.00;;;25.04
72054;BMP280;59918;51.280;7.950;2023-08-12T11:54:15;97969.59;;;25.00
72054;BMP280;59918;51.280;7.950;2023-08-12T11:56:41;97976.34;;;24.74
72054;BMP280;59918;51.280;7.950;2023-08-12T11:59:07;97963.72;;;24.45
72054;BMP280;59918;51.280;7.950;2023-08-12T12:01:32;97975.75;;;24.32
72054;BMP280;59918;51.280;7.950;2023-08-12T12:04:00;97967.44;;;24.25
72054;BMP280;59918;51.280;7.950;2023-08-12T12:06:41;97971.25;;;24.15
72054;BMP280;59918;51.280;7.950;2023-08-12T12:09:07;97972.25;;;24.18
72054;BMP280;59918;51.280;7.950;2023-08-12T12:11:33;97978.28;;;24.37
72054;BMP280;59918;51.280;7.950;2023-08-12T12:14:02;97961.53;;;24.65
72054;BMP280;59918;51.280;7.950;2023-08-12T12:16:43;97961.63;;;24.92
72054;BMP280;59918;51.280;7.950;2023-08-12T12:21:42;97944.31;;;25.92
72054;BMP280;59918;51.280;7.950;2023-08-12T12:24:11;97949.41;;;26.45
72054;BMP280;59918;51.280;7.950;2023-08-12T12:26:37;97939.75;;;26.84
72054;BMP280;59918;51.280;7.950;2023-08-12T12:29:06;97934.47;;;27.31
72054;BMP280;59918;51.280;7.950;2023-08-12T12:31:35;97922.00;;;28.29
72054;BMP280;59918;51.280;7.950;2023-08-12T12:34:04;97925.81;;;28.82
72054;BMP280;59918;51.280;7.950;2023-08-12T12:36:30;97933.84;;;28.23
72054;BMP280;59918;51.280;7.950;2023-08-12T12:38:56;97939.69;;;27.61
72054;BMP280;59918;51.280;7.950;2023-08-12T12:41:21;97946.19;;;27.09
72054;BMP280;59918;51.280;7.950;2023-08-12T12:43:46;97943.34;;;26.67
72054;BMP280;59918;51.280;7.950;2023-08-12T12:46:12;97940.47;;;26.55
72054;BMP280;59918;51.280;7.950;2023-08-12T12:48:37;97940.25;;;26.95
72054;BMP280;59918;51.280;7.950;2023-08-12T12:51:02;97945.09;;;27.10
72054;BMP280;59918;51.280;7.950;2023-08-12T12:53:28;97947.81;;;26.88
72054;BMP280;59918;51.280;7.950;2023-08-12T12:55:53;97951.63;;;26.30
72054;BMP280;59918;51.280;7.950;2023-08-12T12:58:18;97959.47;;;25.87
72054;BMP280;59918;51.280;7.950;2023-08-12T13:00:43;97952.97;;;25.58
72054;BMP280;59918;51.280;7.950;2023-08-12T13:03:09;97963.47;;;25.31
72054;BMP280;59918;51.280;7.950;2023-08-12T13:05:34;97958.91;;;25.10
72054;BMP280;59918;51.280;7.950;2023-08-12T13:07:59;97967.13;;;24.90
72054;BMP280;59918;51.280;7.950;2023-08-12T13:10:25;97973.06;;;24.82
72054;BMP280;59918;51.280;7.950;2023-08-12T13:12:50;97966.47;;;24.85
72054;BMP280;59918;51.280;7.950;2023-08-12T13:15:15;97975.56;;;25.05
72054;BMP280;59918;51.280;7.950;2023-08-12T13:17:40;97968.56;;;25.14
72054;BMP280;59918;51.280;7.950;2023-08-12T13:20:06;97963.59;;;25.26
72054;BMP280;59918;51.280;7.950;2023-08-12T13:22:32;97968.28;;;25.69
72054;BMP280;59918;51.280;7.950;2023-08-12T13:24:57;97977.53;;;25.67
72054;BMP280;59918;51.280;7.950;2023-08-12T13:27:22;97978.78;;;25.29
72054;BMP280;59918;51.280;7.950;2023-08-12T13:29:47;97975.94;;;24.99
72054;BMP280;59918;51.280;7.950;2023-08-12T13:32:13;97984.50;;;24.91
72054;BMP280;59918;51.280;7.950;2023-08-12T13:34:38;97974.41;;;24.80
72054;BMP280;59918;51.280;7.950;2023-08-12T13:37:03;97974.59;;;25.01
72054;BMP280;59918;51.280;7.950;2023-08-12T13:39:28;97967.41;;;25.60
72054;BMP280;59918;51.280;7.950;2023-08-12T13:41:54;97963.28;;;25.81
72054;BMP280;59918;51.280;7.950;2023-08-12T13:44:19;97969.41;;;26.25
72054;BMP280;59918;51.280;7.950;2023-08-12T13:46:44;97932.44;;;28.26
72054;BMP280;59918;51.280;7.950;2023-08-12T13:49:09;97942.09;;;29.01
72054;BMP280;59918;51.280;7.950;2023-08-12T13:51:35;97939.94;;;29.60
72054;BMP280;59918;51.280;7.950;2023-08-12T13:54:00;97954.25;;;29.67
72054;BMP280;59918;51.280;7.950;2023-08-12T13:56:25;97947.50;;;29.78
72054;BMP280;59918;51.280;7.950;2023-08-12T13:58:50;97947.34;;;30.99
72054;BMP280;59918;51.280;7.950;2023-08-12T14:01:15;97951.31;;;30.09
72054;BMP280;59918;51.280;7.950;2023-08-12T14:03:41;97956.34;;;29.25
72054;BMP280;59918;51.280;7.950;2023-08-12T14:06:06;97954.50;;;29.82
72054;BMP280;59918;51.280;7.950;2023-08-12T14:08:31;97943.00;;;30.51
72054;BMP280;59918;51.280;7.950;2023-08-12T14:10:56;97940.94;;;32.92
72054;BMP280;59918;51.280;7.950;2023-08-12T14:13:22;97929.66;;;32.83
72054;BMP280;59918;51.280;7.950;2023-08-12T14:15:47;97940.16;;;31.12
72054;BMP280;59918;51.280;7.950;2023-08-12T14:18:12;97953.41;;;29.55